Terminal Aerodrome Forecast
Issued by NWS Houston/Galveston, TX

Home | Current Version | Previous Version | Text Only | Print | Product List | Glossary On
Versions: 1 2 3 4 5 6 7 8 9 10 11 12 13 14 15 16 17 18 19 20 21 22 23 24 25 26 27 28 29 30 31 32 33 34 35 36 37 38 39 40 41 42 43 44 45 46 47
274
FTUS44 KHGX 182325
TAFGLS
TAF
KGLS 182325Z 1900/1924 24005KT 3SM BR SCT004 OVC009
     FM190200 20008KT 2SM BR OVC004
     FM190900 29008KT 2SM SHRA BR VCTS OVC005CB PROB30 1911/1917 5SM
      TSRA BR BKN007CB
     FM191800 24006KT 5SM BR VCSH BKN007 BKN015
     FM192200 17007KT 3SM BR OVC007=

USA.gov is the U.S. government's official web portal to all federal, state and local government web resources and services.